Time;durP1;ratioP1;P1;durP2;ratioP2;P2;SDS_P1;SDS_P2;PMS_P1;PMS_P2;Temp;Humidity;BMP_temperature;BMP_pressure;BME280_temperature;BME280_humidity;BME280_pressure;Samples;Min_cycle;Max_cycle;Signal;HPM_P1;HPM_P2
2022/05/26 00:02:19;;;;;;;30.50;27.57;;;;;;;24.63;49.49;95295.94;6222729;27;103030;-63
2022/05/26 00:05:27;;;;;;;31.13;28.07;;;;;;;24.65;49.13;95307.13;6234257;27;103062;-63
2022/05/26 00:08:30;;;;;;;28.60;25.87;;;;;;;24.64;49.32;95297.53;6234491;28;103833;-62
2022/05/26 00:11:35;;;;;;;30.07;27.37;;;;;;;24.63;49.33;95299.41;6233825;27;103049;-63
2022/05/26 00:14:39;;;;;;;31.13;28.10;;;;;;;24.60;49.30;95283.19;6224225;28;104007;-62
2022/05/26 00:17:42;;;;;;;30.13;27.10;;;;;;;24.63;49.28;95279.88;6233756;28;104208;-66
2022/05/26 00:20:47;;;;;;;29.03;26.13;;;;;;;24.64;49.53;95284.94;6233956;28;104094;-63
2022/05/26 00:23:50;;;;;;;28.93;26.13;;;;;;;24.61;49.14;95282.09;6246989;27;103068;-63
2022/05/26 00:26:53;;;;;;;28.80;26.07;;;;;;;24.62;49.22;95307.75;6253396;27;103190;-63
2022/05/26 00:29:57;;;;;;;29.37;26.67;;;;;;;24.61;49.27;95304.28;6258947;27;103815;-62
2022/05/26 00:33:00;;;;;;;31.30;28.03;;;;;;;24.58;49.20;95307.59;6258610;27;104047;-62
2022/05/26 00:36:08;;;;;;;30.83;27.73;;;;;;;24.58;49.26;95293.44;6247851;27;103179;-62
2022/05/26 00:39:13;;;;;;;29.17;26.67;;;;;;;24.54;49.65;95289.81;6257652;27;103009;-62
2022/05/26 00:42:16;;;;;;;29.10;26.30;;;;;;;24.54;49.35;95279.91;6258915;27;104016;-63
2022/05/26 00:45:24;;;;;;;27.27;24.83;;;;;;;24.51;49.64;95296.56;6258746;27;103061;-64
2022/05/26 00:48:37;;;;;;;27.77;25.30;;;;;;;24.49;49.50;95282.72;6245692;27;102852;-63
2022/05/26 00:51:42;;;;;;;29.07;26.33;;;;;;;24.48;49.52;95284.63;6241834;27;103999;-62
2022/05/26 00:54:48;;;;;;;26.90;24.40;;;;;;;24.54;49.20;95293.28;6241722;27;103920;-62
2022/05/26 00:57:54;;;;;;;28.60;25.90;;;;;;;24.52;49.22;95287.44;6236304;27;103169;-61
2022/05/26 01:01:00;;;;;;;27.90;25.40;;;;;;;24.53;49.31;95291.72;6236004;27;103327;-61
2022/05/26 01:04:10;;;;;;;28.03;25.53;;;;;;;24.53;48.82;95277.53;6241990;27;104084;-61
2022/05/26 01:07:18;;;;;;;28.47;25.73;;;;;;;24.52;49.28;95282.09;6241376;27;102958;-62
2022/05/26 01:10:21;;;;;;;27.10;24.37;;;;;;;24.49;49.26;95282.72;6230695;27;105794;-61
2022/05/26 01:13:25;;;;;;;27.63;24.87;;;;;;;24.49;49.15;95294.22;6241785;27;104001;-62
2022/05/26 01:16:33;;;;;;;28.10;25.40;;;;;;;24.49;49.34;95299.56;6240713;27;103055;-62
2022/05/26 01:20:12;;;;;;;27.93;25.33;;;;;;;24.52;49.39;95287.44;6241298;27;102941;-61
2022/05/26 01:23:56;;;;;;;28.20;25.47;;;;;;;24.47;49.11;95287.59;6234876;27;103191;-61
2022/05/26 01:27:26;;;;;;;28.37;25.57;;;;;;;24.48;49.07;95286.50;6240816;27;102831;-61
2022/05/26 01:30:46;;;;;;;28.30;25.70;;;;;;;24.46;49.20;95292.16;6240309;27;102999;-62
2022/05/26 01:33:57;;;;;;;28.53;26.03;;;;;;;24.48;49.20;95294.53;6230007;27;102749;-63
2022/05/26 01:37:12;;;;;;;27.00;24.70;;;;;;;24.46;49.18;95310.13;6240975;27;103163;-60
2022/05/26 01:40:33;;;;;;;26.97;24.50;;;;;;;24.46;49.12;95308.22;6240110;27;102862;-61
2022/05/26 01:43:46;;;;;;;26.97;24.40;;;;;;;24.46;49.19;95318.94;6232224;27;104141;-61
2022/05/26 01:46:50;;;;;;;27.97;25.50;;;;;;;24.47;49.24;95333.09;6240308;27;104198;-62
2022/05/26 01:50:01;;;;;;;28.80;26.17;;;;;;;24.46;48.87;95336.88;6240755;27;103898;-62
2022/05/26 01:53:16;;;;;;;28.17;25.47;;;;;;;24.42;49.13;95334.03;6240381;27;104071;-61
2022/05/26 01:56:27;;;;;;;26.70;24.10;;;;;;;24.44;48.97;95328.38;6230654;27;102964;-67
2022/05/26 01:59:37;;;;;;;27.03;24.53;;;;;;;24.37;49.18;95320.03;6240859;27;102970;-58
2022/05/26 02:02:43;;;;;;;28.60;25.70;;;;;;;24.39;49.21;95326.63;6239098;27;103054;-61
2022/05/26 02:05:52;;;;;;;27.17;24.33;;;;;;;24.38;49.01;95317.03;6235540;27;102960;-61
2022/05/26 02:08:59;;;;;;;27.57;25.17;;;;;;;24.36;49.37;95310.41;6234405;27;104198;-61
2022/05/26 02:12:06;;;;;;;26.33;23.80;;;;;;;24.35;49.08;95314.97;6240511;27;104034;-61
2022/05/26 02:15:16;;;;;;;27.20;24.20;;;;;;;24.32;49.07;95306.78;6239994;27;103006;-61
2022/05/26 02:18:22;;;;;;;27.03;24.43;;;;;;;24.30;49.35;95307.09;6229193;27;104142;-61
2022/05/26 02:21:32;;;;;;;27.50;24.53;;;;;;;24.32;48.82;95309.47;6240210;27;104220;-61
2022/05/26 02:24:41;;;;;;;26.73;24.20;;;;;;;24.31;48.96;95314.03;6221722;27;102494;-63
2022/05/26 02:27:46;;;;;;;26.07;23.47;;;;;;;24.32;48.84;95314.81;6214935;28;103075;-62
2022/05/26 02:30:50;;;;;;;25.47;23.00;;;;;;;24.29;49.40;95331.50;6204434;28;103101;-61
2022/05/26 02:33:55;;;;;;;26.70;23.73;;;;;;;24.34;48.87;95334.00;6214695;28;103904;-64
2022/05/26 02:37:01;;;;;;;27.93;25.03;;;;;;;24.31;48.71;95322.06;6214353;28;103010;-60
2022/05/26 02:40:06;;;;;;;25.83;23.30;;;;;;;24.35;48.47;95324.88;6209127;28;103178;-60
2022/05/26 02:43:12;;;;;;;26.27;23.60;;;;;;;24.32;48.64;95331.66;6209177;28;103469;-61
2022/05/26 02:46:29;;;;;;;26.50;23.60;;;;;;;24.40;48.53;95333.56;6214609;28;102879;-66
2022/05/26 02:49:44;;;;;;;25.97;23.50;;;;;;;24.47;48.26;95328.53;6214422;28;102887;-66
2022/05/26 02:53:02;;;;;;;30.33;24.17;;;;;;;24.42;48.56;95319.88;6203496;28;103918;-68
2022/05/26 02:56:17;;;;;;;25.70;23.10;;;;;;;24.31;48.47;95316.69;6214345;28;102988;-66
2022/05/26 02:59:30;;;;;;;26.13;23.63;;;;;;;24.38;48.46;95322.38;6214230;28;104285;-67
2022/05/26 03:02:40;;;;;;;24.40;22.20;;;;;;;24.43;48.27;95332.16;6209388;28;103096;-66
2022/05/26 03:05:49;;;;;;;24.33;22.13;;;;;;;24.52;47.76;95332.13;6209654;28;104039;-69
2022/05/26 03:08:56;;;;;;;28.47;25.97;;;;;;;24.55;47.81;95339.56;6214020;28;104162;-66
2022/05/26 03:11:59;;;;;;;26.00;23.30;;;;;;;24.55;47.72;95342.22;6213905;28;104005;-65
2022/05/26 03:15:06;;;;;;;25.83;23.23;;;;;;;24.60;48.17;95350.09;6202810;28;104037;-65
2022/05/26 03:18:10;;;;;;;26.93;24.43;;;;;;;24.62;47.76;95350.56;6214010;28;103173;-66
2022/05/26 03:21:14;;;;;;;28.87;26.00;;;;;;;24.60;47.77;95352.78;6213849;28;104208;-65
2022/05/26 03:24:18;;;;;;;49.20;44.60;;;;;;;24.62;48.21;95355.91;6214005;28;103852;-65
2022/05/26 03:27:22;;;;;;;39.03;35.23;;;;;;;24.67;51.73;95355.75;6203513;28;103484;-66
2022/05/26 03:30:25;;;;;;;33.33;30.20;;;;;;;24.66;48.39;95357.66;6213515;28;104571;-66
2022/05/26 03:40:45;;;;;;;28.93;26.13;;;;;;;24.64;48.06;95359.06;6213745;28;103013;-66
2022/05/26 03:43:40;;;;;;;40.87;36.97;;;;;;;24.66;48.65;95367.56;6213104;28;103054;-66
2022/05/26 03:46:44;;;;;;;43.60;39.60;;;;;;;24.19;49.29;95365.47;6211468;28;103979;-65
2022/05/26 03:49:47;;;;;;;33.93;30.87;;;;;;;24.19;49.37;95365.47;6218307;27;104139;-67
2022/05/26 03:52:51;;;;;;;33.43;30.03;;;;;;;24.29;48.98;95374.28;6212729;28;103132;-66
2022/05/26 03:55:56;;;;;;;32.33;29.23;;;;;;;24.29;48.83;95368.94;6213733;28;103114;-66
2022/05/26 03:59:00;;;;;;;31.47;28.50;;;;;;;24.27;49.10;95371.13;6213049;28;103120;-66
2022/05/26 04:02:03;;;;;;;29.83;27.03;;;;;;;24.15;49.34;95380.53;6202578;28;103957;-66
2022/05/26 04:05:07;;;;;;;25.13;22.90;;;;;;;24.22;49.23;95385.44;6213417;28;103056;-66
2022/05/26 04:08:10;;;;;;;28.80;25.93;;;;;;;24.25;48.72;95387.50;6213044;28;102934;-67
2022/05/26 04:11:15;;;;;;;28.80;25.93;;;;;;;24.17;49.06;95389.03;6203583;28;103030;-66
2022/05/26 04:14:18;;;;;;;27.93;25.07;;;;;;;24.23;48.76;95389.69;6211632;28;102977;-65
2022/05/26 04:17:22;;;;;;;28.20;25.40;;;;;;;24.32;48.61;95395.84;6213620;28;105573;-66
2022/05/26 04:20:25;;;;;;;31.67;28.67;;;;;;;24.34;48.61;95404.34;6213157;28;103991;-66
2022/05/26 04:23:28;;;;;;;31.23;28.03;;;;;;;24.39;48.41;95406.09;6202143;28;104431;-67
2022/05/26 04:26:34;;;;;;;27.10;24.30;;;;;;;24.36;48.37;95402.16;6217488;28;103372;-66
2022/05/26 04:29:38;;;;;;;28.07;25.47;;;;;;;24.33;48.51;95415.34;6216982;28;104013;-66
2022/05/26 04:32:42;;;;;;;27.43;24.87;;;;;;;24.35;48.39;95416.63;6217374;28;102953;-66
2022/05/26 04:35:45;;;;;;;27.00;24.50;;;;;;;24.32;48.34;95413.78;6205876;28;103209;-66
2022/05/26 04:38:48;;;;;;;27.60;24.80;;;;;;;24.33;48.46;95418.03;6217056;28;103188;-66
2022/05/26 04:41:53;;;;;;;27.90;25.00;;;;;;;24.20;48.77;95414.41;6217001;28;103256;-68
2022/05/26 04:44:57;;;;;;;27.73;25.03;;;;;;;24.30;48.35;95411.41;6212181;28;104329;-66
2022/05/26 04:48:00;;;;;;;27.73;25.07;;;;;;;24.34;48.40;95422.28;6211694;28;102953;-66
2022/05/26 04:51:04;;;;;;;27.20;24.40;;;;;;;24.33;48.44;95424.16;6216425;28;103920;-65
2022/05/26 04:54:08;;;;;;;27.10;24.33;;;;;;;24.33;48.29;95423.38;6216566;28;103103;-65
2022/05/26 04:57:14;;;;;;;27.63;24.83;;;;;;;24.34;48.49;95420.38;6206562;28;104479;-66
2022/05/26 05:00:18;;;;;;;26.87;24.13;;;;;;;24.37;48.53;95410.97;6216485;28;104265;-65
2022/05/26 05:03:21;;;;;;;27.43;24.53;;;;;;;24.35;48.59;95416.63;6216470;28;102819;-66
2022/05/26 05:06:24;;;;;;;26.33;23.67;;;;;;;24.38;48.65;95420.59;6216114;28;103714;-66
2022/05/26 05:09:27;;;;;;;24.93;22.53;;;;;;;24.39;48.67;95417.59;6207084;28;103704;-65
2022/05/26 05:12:32;;;;;;;25.03;22.00;;;;;;;24.38;48.57;95424.03;6216257;28;103765;-65
2022/05/26 05:15:40;;;;;;;24.70;22.20;;;;;;;24.44;48.15;95425.47;6216184;28;103077;-65
2022/05/26 05:18:44;;;;;;;24.40;21.90;;;;;;;24.47;47.83;95424.06;6212494;28;104204;-64
2022/05/26 05:21:54;;;;;;;25.47;22.73;;;;;;;24.41;48.80;95428.75;6210659;28;104206;-65
2022/05/26 05:25:01;;;;;;;24.60;21.90;;;;;;;24.36;48.70;95433.44;6216134;28;103354;-64
2022/05/26 05:28:10;;;;;;;25.27;22.57;;;;;;;24.46;48.50;95433.97;6216089;28;103251;-65
2022/05/26 05:31:17;;;;;;;25.47;23.17;;;;;;;24.51;48.03;95433.03;6205240;28;105029;-64
2022/05/26 05:34:24;;;;;;;26.10;23.30;;;;;;;24.54;48.31;95435.09;6215604;28;102926;-64
2022/05/26 05:37:27;;;;;;;25.70;23.00;;;;;;;24.58;48.33;95443.28;6215967;28;102962;-65
2022/05/26 05:40:31;;;;;;;26.63;23.93;;;;;;;24.54;48.95;95439.66;6216200;28;104338;-65
2022/05/26 05:43:38;;;;;;;25.50;23.00;;;;;;;24.51;49.20;95443.72;6205732;28;104032;-65
2022/05/26 05:46:58;;;;;;;23.57;21.27;;;;;;;24.62;48.31;95453.03;6215885;28;104242;-65
2022/05/26 05:50:01;;;;;;;34.60;31.30;;;;;;;24.66;48.96;95451.31;6214555;28;106301;-66
2022/05/26 05:53:05;;;;;;;26.00;23.67;;;;;;;24.72;48.61;95452.00;6210507;28;103460;-65
2022/05/26 05:56:08;;;;;;;28.83;26.10;;;;;;;24.73;48.59;95458.94;6210466;28;103416;-64
2022/05/26 05:59:12;;;;;;;28.27;25.43;;;;;;;24.74;48.52;95465.88;6214994;28;103114;-65
2022/05/26 06:02:15;;;;;;;26.10;23.70;;;;;;;24.85;48.40;95472.47;6215385;28;103279;-65
2022/05/26 06:05:37;;;;;;;26.23;23.63;;;;;;;24.91;48.15;95473.91;6203739;28;103440;-63
2022/05/26 06:08:41;;;;;;;25.63;23.40;;;;;;;24.92;48.50;95470.13;6215619;28;103795;-64
2022/05/26 06:11:45;;;;;;;24.97;22.77;;;;;;;24.95;48.58;95463.38;6215112;28;103106;-65
2022/05/26 06:14:49;;;;;;;26.90;24.20;;;;;;;24.96;48.77;95475.66;6215408;28;103172;-64
2022/05/26 06:17:53;;;;;;;26.10;23.60;;;;;;;24.95;48.70;95476.75;6204227;28;102988;-65
2022/05/26 06:21:02;;;;;;;34.90;31.30;;;;;;;24.99;49.07;95473.13;6214613;28;103326;-65
2022/05/26 06:24:06;;;;;;;33.70;30.37;;;;;;;25.00;49.01;95485.41;6215505;28;104172;-65
2022/05/26 06:30:34;;;;;;;32.40;29.13;;;;;;;24.98;49.43;95479.59;6214685;28;104246;-65
2022/05/26 06:37:15;;;;;;;29.80;27.00;;;;;;;25.06;49.04;95488.75;6162302;28;103112;-63
2022/05/26 06:40:19;;;;;;;29.30;26.50;;;;;;;25.06;49.41;95492.22;6203820;28;103059;-64
2022/05/26 06:43:22;;;;;;;29.27;26.53;;;;;;;25.05;49.06;95492.53;6214438;28;104100;-64
2022/05/26 06:46:27;;;;;;;28.87;26.17;;;;;;;25.03;49.30;95484.81;6214237;28;103004;-64
2022/05/26 06:49:30;;;;;;;28.40;25.67;;;;;;;25.06;49.48;95492.22;6209851;28;103278;-62
2022/05/26 06:52:33;;;;;;;27.70;25.07;;;;;;;25.06;48.88;95492.22;6208696;28;103216;-65
2022/05/26 06:55:36;;;;;;;27.97;25.43;;;;;;;25.08;49.02;95491.91;6214678;28;103687;-62
2022/05/26 06:58:40;;;;;;;32.67;29.07;;;;;;;24.87;50.84;95486.38;6214530;28;102983;-65
2022/05/26 07:01:50;;;;;;;27.77;24.97;;;;;;;25.03;49.79;95500.88;6203917;28;104041;-64
2022/05/26 07:04:53;;;;;;;27.57;24.87;;;;;;;25.10;49.41;95500.41;6213673;28;103185;-65
2022/05/26 07:07:57;;;;;;;27.93;24.90;;;;;;;25.11;49.15;95495.84;6213852;28;102972;-65
2022/05/26 07:11:01;;;;;;;27.33;24.80;;;;;;;25.24;49.15;95494.91;6214027;28;104108;-61
2022/05/26 07:14:04;;;;;;;28.97;24.30;;;;;;;25.38;48.95;95498.25;6203341;28;104156;-61
2022/05/26 07:17:08;;;;;;;24.27;21.93;;;;;;;25.47;48.40;95503.59;6214077;28;104155;-61
2022/05/26 07:20:12;;;;;;;26.33;23.60;;;;;;;25.54;48.62;95498.53;6213988;28;103202;-62
2022/05/26 07:23:15;;;;;;;26.07;23.20;;;;;;;25.60;48.52;95498.06;6214106;28;102926;-62
2022/05/26 07:26:19;;;;;;;25.53;22.90;;;;;;;25.66;48.21;95507.50;6202962;28;102940;-61
2022/05/26 07:29:22;;;;;;;25.37;22.87;;;;;;;25.72;47.76;95499.34;6214052;28;103078;-61
2022/05/26 07:32:27;;;;;;;27.17;24.20;;;;;;;25.73;48.12;95512.41;6214324;28;104172;-61
2022/05/26 07:35:30;;;;;;;26.77;24.10;;;;;;;25.76;47.88;95495.69;6207136;28;102767;-60
2022/05/26 07:42:12;;;;;;;25.37;22.77;;;;;;;25.77;47.68;95499.16;6160774;28;103128;-62
2022/05/26 07:45:15;;;;;;;24.37;21.90;;;;;;;25.78;47.84;95501.50;6161840;28;103193;-61
2022/05/26 07:48:20;;;;;;;25.70;23.30;;;;;;;25.82;47.67;95509.69;6199871;28;103047;-61
2022/05/26 07:51:25;;;;;;;25.83;23.00;;;;;;;25.89;47.76;95513.50;6212807;28;103101;-62
2022/05/26 07:54:29;;;;;;;24.23;21.90;;;;;;;25.91;48.00;95511.28;6213748;28;103228;-63
2022/05/26 07:57:32;;;;;;;24.47;22.17;;;;;;;25.95;47.56;95516.78;6212036;28;104180;-62
2022/05/26 08:00:35;;;;;;;23.67;21.47;;;;;;;25.98;47.34;95516.16;6209124;28;103807;-62
2022/05/26 08:03:40;;;;;;;24.23;21.70;;;;;;;25.99;47.71;95515.81;6217497;28;103951;-62
2022/05/26 08:06:45;;;;;;;22.17;20.00;;;;;;;26.03;47.19;95521.34;6218055;28;104108;-62
2022/05/26 08:09:50;;;;;;;21.97;19.93;;;;;;;26.06;46.90;95519.97;6206973;28;103308;-61
2022/05/26 08:12:53;;;;;;;22.30;19.73;;;;;;;26.08;47.22;95518.53;6217515;28;102941;-61
2022/05/26 08:16:03;;;;;;;21.03;18.93;;;;;;;26.10;47.46;95516.31;6217766;28;103040;-61
2022/05/26 08:19:08;;;;;;;21.60;19.30;;;;;;;26.15;47.17;95520.72;6216980;28;103726;-61
2022/05/26 08:22:12;;;;;;;21.27;19.17;;;;;;;26.17;46.85;95521.16;6206568;28;104155;-61
2022/05/26 08:25:15;;;;;;;19.60;17.80;;;;;;;26.21;46.26;95511.38;6217331;28;104051;-61
2022/05/26 08:28:18;;;;;;;19.03;17.33;;;;;;;26.21;46.21;95517.56;6217473;28;103967;-60
2022/05/26 08:31:22;;;;;;;20.93;18.40;;;;;;;26.23;46.42;95515.34;6217558;28;103217;-67
2022/05/26 08:34:26;;;;;;;19.93;18.03;;;;;;;26.24;46.80;95522.28;6207710;28;105683;-61
2022/05/26 08:37:29;;;;;;;21.17;19.17;;;;;;;26.24;46.55;95516.91;6217218;28;102976;-61
2022/05/26 08:40:39;;;;;;;20.63;18.50;;;;;;;26.26;46.28;95520.06;6217061;28;102975;-62
2022/05/26 08:43:46;;;;;;;20.23;18.27;;;;;;;26.26;45.74;95519.25;6208996;28;104383;-59
2022/05/26 08:46:52;;;;;;;19.70;17.70;;;;;;;26.23;45.81;95518.00;6216156;28;103141;-60
2022/05/26 08:50:02;;;;;;;17.57;15.87;;;;;;;26.24;45.48;95521.47;6216246;28;103046;-61
2022/05/26 08:53:11;;;;;;;17.37;15.70;;;;;;;26.25;44.96;95523.06;6217409;28;106533;-61
2022/05/26 08:56:18;;;;;;;16.77;14.97;;;;;;;26.24;45.35;95524.94;6205799;28;104185;-61
2022/05/26 08:59:26;;;;;;;16.27;14.57;;;;;;;26.24;45.14;95524.16;6217028;28;103974;-61
2022/05/26 09:02:34;;;;;;;14.13;12.70;;;;;;;26.22;44.86;95524.50;6216496;28;102902;-63
2022/05/26 09:05:43;;;;;;;14.20;12.80;;;;;;;26.22;45.03;95523.69;6216617;28;102989;-60
2022/05/26 09:15:45;;;;;;;13.43;12.13;;;;;;;26.21;44.66;95517.56;6165592;28;103164;-61
2022/05/26 09:19:07;;;;;;;14.13;12.80;;;;;;;26.23;44.48;95520.69;6205147;28;102894;-61
2022/05/26 09:22:26;;;;;;;13.53;12.23;;;;;;;26.23;44.83;95520.69;6216638;28;104136;-61
2022/05/26 09:25:36;;;;;;;13.30;11.73;;;;;;;26.22;44.68;95513.75;6216026;28;103137;-62
2022/05/26 09:28:44;;;;;;;13.50;12.10;;;;;;;26.24;44.56;95521.47;6211877;28;105225;-62
2022/05/26 09:31:49;;;;;;;12.67;11.47;;;;;;;26.24;44.26;95514.22;6210450;28;103177;-62
2022/05/26 09:35:09;;;;;;;11.30;10.40;;;;;;;26.23;44.32;95518.00;6216335;28;104158;-61
2022/05/26 09:38:19;;;;;;;11.80;10.67;;;;;;;26.25;43.99;95515.78;6215889;28;104189;-62
2022/05/26 09:41:22;;;;;;;11.07;10.07;;;;;;;26.25;44.37;95515.78;6204530;28;103261;-67
2022/05/26 09:44:53;;;;;;;10.80;9.80;;;;;;;26.25;44.13;95509.63;6216036;28;103262;-62
2022/05/26 09:48:01;;;;;;;10.03;9.10;;;;;;;26.25;43.54;95505.06;6215890;28;103013;-62
2022/05/26 09:51:11;;;;;;;9.37;8.50;;;;;;;26.26;43.72;95505.84;6214372;28;104061;-60
2022/05/26 09:54:28;;;;;;;10.50;9.40;;;;;;;26.25;43.54;95499.69;6210532;28;105210;-62
2022/05/26 09:57:31;;;;;;;9.00;8.10;;;;;;;26.24;43.46;95503.50;6215941;28;104080;-62
2022/05/26 10:00:39;;;;;;;9.50;8.00;;;;;;;26.23;43.52;95506.50;6215460;28;103379;-62
2022/05/26 10:03:54;;;;;;;8.90;8.00;;;;;;;26.23;43.72;95496.56;6204568;28;104119;-63
2022/05/26 10:07:01;;;;;;;7.53;6.83;;;;;;;26.22;43.60;95491.50;6215790;28;103035;-62
2022/05/26 10:10:16;;;;;;;8.30;7.50;;;;;;;26.20;42.93;95483.75;6215726;28;104281;-64
2022/05/26 10:13:35;;;;;;;8.30;7.43;;;;;;;26.21;43.29;95496.09;6215963;28;103234;-64
2022/05/26 10:16:45;;;;;;;7.90;7.10;;;;;;;26.18;42.75;95496.69;6206311;28;103158;-64
2022/05/26 10:20:12;;;;;;;7.83;6.87;;;;;;;26.19;42.98;95484.06;6215701;28;102916;-65
2022/05/26 10:23:35;;;;;;;7.40;6.60;;;;;;;26.18;43.23;95487.88;6214451;28;102944;-62
2022/05/26 10:26:46;;;;;;;7.90;7.10;;;;;;;26.13;42.90;95477.31;6204914;28;103004;-61
2022/05/26 10:30:01;;;;;;;9.30;7.03;;;;;;;26.16;42.64;95471.31;6215195;28;103078;-62
2022/05/26 10:33:37;;;;;;;6.90;6.13;;;;;;;26.14;42.95;95478.91;6215530;28;104215;-63
2022/05/26 10:37:01;;;;;;;6.70;6.10;;;;;;;26.14;42.32;95477.00;6209114;28;104167;-66
2022/05/26 10:40:18;;;;;;;6.83;6.10;;;;;;;26.11;42.79;95476.84;6212458;28;104390;-64
2022/05/26 10:43:26;;;;;;;7.40;5.97;;;;;;;26.10;42.61;95481.44;6215451;28;104256;-63
2022/05/26 10:46:32;;;;;;;6.70;5.60;;;;;;;26.10;42.24;95472.59;6214857;28;102747;-62
2022/05/26 10:49:43;;;;;;;6.30;5.70;;;;;;;26.10;42.11;95484.13;6204225;28;102971;-64
2022/05/26 10:52:51;;;;;;;7.57;5.97;;;;;;;26.09;41.95;95481.75;6215029;28;104020;-62
2022/05/26 10:56:01;;;;;;;9.73;6.73;;;;;;;26.09;41.79;95481.75;6215304;28;103927;-61
2022/05/26 10:59:11;;;;;;;7.97;5.70;;;;;;;26.06;42.15;95483.19;6213115;28;103169;-60
2022/05/26 11:02:20;;;;;;;6.47;5.70;;;;;;;26.06;40.84;95474.34;6207617;28;103469;-61
2022/05/26 11:05:32;;;;;;;5.77;5.27;;;;;;;26.03;41.20;95475.75;6214684;28;102913;-62
2022/05/26 11:08:40;;;;;;;5.60;5.10;;;;;;;26.03;40.92;95477.66;6214183;28;102919;-63
2022/05/26 11:11:46;;;;;;;5.90;5.30;;;;;;;26.01;40.32;95467.25;6204137;28;103331;-65
2022/05/26 11:18:22;;;;;;;7.00;4.50;;;;;;;25.98;39.59;95465.19;6214681;28;104137;-61
2022/05/26 11:21:26;;;;;;;6.77;4.87;;;;;;;25.96;39.12;95456.69;6214262;28;104340;-61
2022/05/26 11:24:29;;;;;;;4.47;4.03;;;;;;;25.97;39.13;95458.25;6205026;28;103790;-62
2022/05/26 11:27:37;;;;;;;4.90;4.03;;;;;;;26.02;38.96;95462.69;6214361;28;103575;-63
2022/05/26 11:37:41;;;;;;;5.30;4.40;;;;;;;25.97;38.87;95448.31;6213932;28;104221;-60
2022/05/26 11:40:48;;;;;;;5.07;4.57;;;;;;;25.97;38.67;95436.78;6214337;28;103741;-62
2022/05/26 11:44:02;;;;;;;8.23;4.90;;;;;;;25.97;38.64;95444.84;6214204;28;104300;-61
2022/05/26 11:47:31;;;;;;;7.27;4.80;;;;;;;25.96;38.46;95448.63;6203673;28;103880;-61
2022/05/26 11:51:00;;;;;;;6.40;4.03;;;;;;;25.94;38.84;95454.31;6213413;28;103078;-61
2022/05/26 11:54:03;;;;;;;5.20;4.70;;;;;;;25.93;38.71;95447.38;6213640;28;104478;-61
2022/05/26 11:57:34;;;;;;;6.33;4.57;;;;;;;25.95;39.04;95455.09;6203593;28;103253;-60
2022/05/26 12:00:40;;;;;;;4.60;4.20;;;;;;;25.93;38.99;95451.97;6213277;28;104272;-60
2022/05/26 12:04:01;;;;;;;5.03;4.53;;;;;;;25.94;39.39;95448.97;6228555;27;103118;-62
2022/05/26 12:07:06;;;;;;;5.37;4.80;;;;;;;25.92;39.12;95453.06;6236373;27;103983;-61
2022/05/26 12:10:21;;;;;;;6.80;4.90;;;;;;;25.92;38.23;95445.81;6208708;28;102662;-61
2022/05/26 12:13:33;;;;;;;9.30;7.87;;;;;;;25.76;38.13;95460.06;6234921;28;104111;-63
2022/05/26 12:16:36;;;;;;;9.80;8.80;;;;;;;25.87;37.51;95451.31;6238680;27;104288;-64
2022/05/26 12:19:44;;;;;;;9.80;9.00;;;;;;;25.84;36.63;95465.38;6227818;27;102952;-62
2022/05/26 12:23:23;;;;;;;9.90;7.93;;;;;;;25.77;37.54;95458.94;6238148;28;103336;-63
2022/05/26 12:26:47;;;;;;;9.93;7.30;;;;;;;25.79;37.20;95470.91;6238594;27;103471;-63
2022/05/26 12:30:04;;;;;;;9.07;8.17;;;;;;;25.86;37.38;95473.09;6237711;27;103983;-62
2022/05/26 12:33:27;;;;;;;9.60;8.70;;;;;;;25.90;37.74;95469.47;6230241;27;103123;-61
2022/05/26 12:36:43;;;;;;;10.70;8.40;;;;;;;25.89;38.11;95462.53;6230433;27;103207;-61
2022/05/26 12:40:12;;;;;;;11.40;9.47;;;;;;;25.93;38.17;95455.44;6236174;27;103054;-62
2022/05/26 12:43:56;;;;;;;9.43;7.97;;;;;;;25.97;38.68;95455.56;6227447;27;104154;-62
2022/05/26 12:47:18;;;;;;;12.30;9.07;;;;;;;25.97;38.51;95456.34;6241981;27;104171;-61
2022/05/26 12:50:25;;;;;;;8.57;7.77;;;;;;;25.98;38.96;95449.09;6242059;27;103338;-62
2022/05/26 12:53:33;;;;;;;8.00;7.30;;;;;;;25.98;39.25;95439.16;6232374;27;104058;-62
2022/05/26 12:56:46;;;;;;;6.83;6.17;;;;;;;25.98;39.25;95449.09;6241686;27;103135;-62
2022/05/26 12:59:50;;;;;;;8.03;6.93;;;;;;;25.98;39.31;95454.47;6241552;27;102934;-61
2022/05/26 13:02:56;;;;;;;9.57;6.63;;;;;;;25.98;39.23;95454.47;6237178;27;104078;-62
2022/05/26 13:06:01;;;;;;;8.47;6.37;;;;;;;25.97;39.54;95453.66;6203947;28;104229;-63
2022/05/26 13:09:14;;;;;;;7.13;6.50;;;;;;;25.96;39.62;95462.81;6216555;28;103447;-61
2022/05/26 13:12:21;;;;;;;6.50;5.90;;;;;;;25.94;39.65;95457.00;6217146;28;103718;-61
2022/05/26 13:15:27;;;;;;;7.10;6.40;;;;;;;25.97;39.79;95447.53;6213059;28;103045;-61
2022/05/26 13:18:30;;;;;;;7.07;6.40;;;;;;;25.97;39.91;95444.84;6210522;28;102945;-61
2022/05/26 13:21:34;;;;;;;6.10;5.53;;;;;;;25.96;40.18;95438.69;6216380;28;102525;-62
2022/05/26 13:24:38;;;;;;;7.60;5.67;;;;;;;25.95;40.38;95444.38;6216737;28;103891;-61
2022/05/26 13:27:47;;;;;;;7.07;5.50;;;;;;;25.93;40.47;95436.66;6206080;28;103284;-62
2022/05/26 13:34:16;;;;;;;6.80;6.30;;;;;;;25.94;40.72;95434.75;6217109;28;104017;-62
2022/05/26 13:37:23;;;;;;;7.47;6.00;;;;;;;25.92;41.18;95423.56;6216551;28;104233;-62
2022/05/26 13:40:30;;;;;;;7.43;6.73;;;;;;;25.93;41.19;95419.78;6206281;28;103067;-61
2022/05/26 13:43:38;;;;;;;6.40;5.80;;;;;;;25.94;41.07;95426.72;6215915;28;104160;-61
2022/05/26 13:46:43;;;;;;;6.70;6.00;;;;;;;25.94;41.44;95427.50;6216821;28;104314;-61
2022/05/26 13:50:00;;;;;;;6.80;6.20;;;;;;;25.93;41.61;95420.56;6211368;28;103673;-61
2022/05/26 13:53:06;;;;;;;6.87;6.30;;;;;;;25.93;41.28;95415.19;6212100;28;104022;-61
2022/05/26 13:56:15;;;;;;;6.37;5.77;;;;;;;25.93;41.33;95414.41;6216926;28;103271;-61
2022/05/26 13:59:18;;;;;;;7.33;6.33;;;;;;;25.94;41.67;95422.13;6215958;28;104009;-61
2022/05/26 14:02:26;;;;;;;6.47;5.97;;;;;;;25.95;41.89;95417.56;6205238;28;104181;-61
2022/05/26 14:05:30;;;;;;;6.60;6.03;;;;;;;25.95;41.76;95412.19;6215484;28;103141;-61
2022/05/26 14:08:48;;;;;;;10.73;6.07;;;;;;;25.95;42.01;95409.50;6215865;28;102981;-61
2022/05/26 14:12:03;;;;;;;6.70;6.20;;;;;;;25.93;42.08;95403.69;6215988;28;103133;-61
2022/05/26 14:15:07;;;;;;;6.87;6.20;;;;;;;25.94;42.05;95399.91;6205745;28;104106;-61
2022/05/26 14:18:23;;;;;;;6.37;5.77;;;;;;;25.92;42.40;95396.75;6215559;28;103045;-61
2022/05/26 14:21:30;;;;;;;7.23;6.60;;;;;;;25.94;42.07;95399.91;6215280;28;103982;-63
2022/05/26 14:24:38;;;;;;;6.87;6.27;;;;;;;25.94;42.60;95397.22;6204868;28;103087;-62
2022/05/26 14:27:57;;;;;;;6.20;5.80;;;;;;;25.93;42.40;95392.97;6214682;28;102947;-61
2022/05/26 14:31:02;;;;;;;6.30;5.90;;;;;;;25.94;42.56;95381.13;6215404;28;103262;-62
2022/05/26 14:34:08;;;;;;;7.83;6.10;;;;;;;25.91;42.65;95379.09;6215398;28;103963;-61
2022/05/26 14:37:11;;;;;;;6.13;5.53;;;;;;;25.93;42.58;95385.69;6204175;28;104032;-61
2022/05/26 14:40:15;;;;;;;7.20;6.50;;;;;;;25.95;42.33;95385.38;6215228;28;104228;-61
2022/05/26 14:43:22;;;;;;;8.60;5.43;;;;;;;25.95;42.46;95382.69;6214552;28;104271;-61
2022/05/26 14:46:26;;;;;;;7.00;6.40;;;;;;;25.93;42.77;95380.34;6209896;28;104019;-61
2022/05/26 14:49:30;;;;;;;7.33;6.47;;;;;;;25.93;42.46;95379.56;6208536;28;104078;-62
2022/05/26 14:52:33;;;;;;;7.67;6.87;;;;;;;25.92;41.97;95369.94;6215029;28;102748;-63
2022/05/26 14:55:38;;;;;;;7.23;6.63;;;;;;;25.89;42.24;95371.38;6214574;28;102778;-61
2022/05/26 14:58:43;;;;;;;7.47;6.77;;;;;;;25.89;42.21;95374.06;6204167;28;104438;-61
2022/05/26 15:01:46;;;;;;;7.77;7.07;;;;;;;25.90;42.00;95374.84;6214821;28;103296;-61